sensor_id;sensor_type;location;lat;lon;timestamp;pressure;altitude;pressure_sealevel;temperature;humidity
25130;BME280;13308;50.860;13.664;2023-09-08T05:19:06;97326.72;;;11.53;100.00
25130;BME280;13308;50.860;13.664;2023-09-08T05:21:33;97324.34;;;11.59;100.00
25130;BME280;13308;50.860;13.664;2023-09-08T05:23:59;97334.47;;;11.72;100.00
25130;BME280;13308;50.860;13.664;2023-09-08T05:26:25;97332.50;;;11.69;100.00
25130;BME280;13308;50.860;13.664;2023-09-08T05:28:50;97331.31;;;11.70;100.00
25130;BME280;13308;50.860;13.664;2023-09-08T05:31:16;97336.38;;;11.75;100.00
25130;BME280;13308;50.860;13.664;2023-09-08T05:33:42;97337.50;;;11.81;100.00
25130;BME280;13308;50.860;13.664;2023-09-08T05:36:08;97336.69;;;11.84;100.00
25130;BME280;13308;50.860;13.664;2023-09-08T05:38:33;97338.56;;;11.91;100.00
25130;BME280;13308;50.860;13.664;2023-09-08T05:40:59;97336.13;;;11.96;100.00
25130;BME280;13308;50.860;13.664;2023-09-08T05:43:25;97339.50;;;12.07;100.00
25130;BME280;13308;50.860;13.664;2023-09-08T05:45:51;97340.91;;;12.22;100.00
25130;BME280;13308;50.860;13.664;2023-09-08T05:48:17;97338.25;;;12.42;100.00
25130;BME280;13308;50.860;13.664;2023-09-08T05:50:42;97342.06;;;12.51;100.00
25130;BME280;13308;50.860;13.664;2023-09-08T05:53:08;97346.28;;;12.59;100.00
25130;BME280;13308;50.860;13.664;2023-09-08T05:55:34;97338.38;;;12.84;100.00
25130;BME280;13308;50.860;13.664;2023-09-08T05:57:59;97345.28;;;12.99;100.00
25130;BME280;13308;50.860;13.664;2023-09-08T06:00:24;97341.09;;;13.11;100.00
25130;BME280;13308;50.860;13.664;2023-09-08T06:02:51;97342.38;;;13.29;100.00
25130;BME280;13308;50.860;13.664;2023-09-08T06:05:17;97336.69;;;13.36;100.00
25130;BME280;13308;50.860;13.664;2023-09-08T06:07:43;97333.31;;;13.48;100.00
25130;BME280;13308;50.860;13.664;2023-09-08T06:10:09;97333.41;;;13.64;100.00
25130;BME280;13308;50.860;13.664;2023-09-08T06:12:36;97335.88;;;13.78;100.00
25130;BME280;13308;50.860;13.664;2023-09-08T06:15:04;97338.72;;;13.94;100.00
25130;BME280;13308;50.860;13.664;2023-09-08T06:17:31;97336.03;;;14.10;100.00
25130;BME280;13308;50.860;13.664;2023-09-08T06:19:56;97332.41;;;14.49;100.00
25130;BME280;13308;50.860;13.664;2023-09-08T06:22:22;97335.63;;;14.63;100.00
25130;BME280;13308;50.860;13.664;2023-09-08T06:24:48;97336.97;;;14.75;100.00
25130;BME280;13308;50.860;13.664;2023-09-08T06:27:15;97333.06;;;14.88;100.00
25130;BME280;13308;50.860;13.664;2023-09-08T06:29:40;97342.41;;;15.10;100.00
25130;BME280;13308;50.860;13.664;2023-09-08T06:32:09;97341.38;;;15.36;100.00
25130;BME280;13308;50.860;13.664;2023-09-08T06:34:35;97346.38;;;15.57;100.00
25130;BME280;13308;50.860;13.664;2023-09-08T06:37:01;97340.69;;;15.77;100.00
25130;BME280;13308;50.860;13.664;2023-09-08T06:39:27;97340.84;;;15.98;100.00
25130;BME280;13308;50.860;13.664;2023-09-08T06:41:54;97339.19;;;16.01;100.00
25130;BME280;13308;50.860;13.664;2023-09-08T06:44:20;97338.00;;;16.14;100.00
25130;BME280;13308;50.860;13.664;2023-09-08T06:46:46;97335.75;;;16.50;100.00
25130;BME280;13308;50.860;13.664;2023-09-08T06:49:12;97343.66;;;16.89;100.00
25130;BME280;13308;50.860;13.664;2023-09-08T06:51:37;97341.22;;;16.91;100.00
25130;BME280;13308;50.860;13.664;2023-09-08T06:54:04;97343.84;;;17.32;100.00
25130;BME280;13308;50.860;13.664;2023-09-08T06:56:35;97337.34;;;17.35;100.00
25130;BME280;13308;50.860;13.664;2023-09-08T06:59:01;97337.47;;;17.44;100.00
25130;BME280;13308;50.860;13.664;2023-09-08T07:01:28;97333.41;;;17.79;100.00
25130;BME280;13308;50.860;13.664;2023-09-08T07:03:54;97327.72;;;18.04;100.00
25130;BME280;13308;50.860;13.664;2023-09-08T07:06:19;97338.06;;;18.38;100.00
25130;BME280;13308;50.860;13.664;2023-09-08T07:08:48;97345.16;;;18.60;100.00
25130;BME280;13308;50.860;13.664;2023-09-08T07:11:16;97347.78;;;18.94;100.00
25130;BME280;13308;50.860;13.664;2023-09-08T07:13:42;97351.69;;;19.63;100.00
25130;BME280;13308;50.860;13.664;2023-09-08T07:16:07;97353.28;;;19.91;100.00
25130;BME280;13308;50.860;13.664;2023-09-08T07:18:32;97356.50;;;20.52;100.00
25130;BME280;13308;50.860;13.664;2023-09-08T07:21:02;97364.84;;;21.21;99.44
25130;BME280;13308;50.860;13.664;2023-09-08T07:23:27;97363.97;;;22.09;92.56
25130;BME280;13308;50.860;13.664;2023-09-08T07:25:53;97367.72;;;23.16;89.69
25130;BME280;13308;50.860;13.664;2023-09-08T07:28:22;97368.84;;;24.13;81.84
25130;BME280;13308;50.860;13.664;2023-09-08T07:30:47;97379.44;;;25.26;72.52
25130;BME280;13308;50.860;13.664;2023-09-08T07:33:13;97377.66;;;26.07;70.87
25130;BME280;13308;50.860;13.664;2023-09-08T07:35:39;97380.97;;;27.02;65.71
25130;BME280;13308;50.860;13.664;2023-09-08T07:38:05;97381.22;;;27.70;62.65
25130;BME280;13308;50.860;13.664;2023-09-08T07:40:35;97368.53;;;27.77;59.73
25130;BME280;13308;50.860;13.664;2023-09-08T07:43:00;97380.41;;;28.95;57.83
25130;BME280;13308;50.860;13.664;2023-09-08T07:45:26;97383.97;;;29.36;55.82
25130;BME280;13308;50.860;13.664;2023-09-08T07:47:51;97381.16;;;28.55;48.69
25130;BME280;13308;50.860;13.664;2023-09-08T07:50:20;97388.06;;;29.40;51.64
25130;BME280;13308;50.860;13.664;2023-09-08T07:52:50;97379.44;;;28.87;51.47
25130;BME280;13308;50.860;13.664;2023-09-08T07:55:16;97384.00;;;29.01;52.19
25130;BME280;13308;50.860;13.664;2023-09-08T07:57:43;97381.25;;;29.49;48.28
25130;BME280;13308;50.860;13.664;2023-09-08T08:00:09;97384.16;;;29.73;44.99
25130;BME280;13308;50.860;13.664;2023-09-08T08:02:45;97392.34;;;30.06;45.32
25130;BME280;13308;50.860;13.664;2023-09-08T08:05:11;97405.38;;;30.81;45.88
25130;BME280;13308;50.860;13.664;2023-09-08T08:07:36;97392.13;;;30.46;43.56
25130;BME280;13308;50.860;13.664;2023-09-08T08:10:01;97402.28;;;30.42;41.58
25130;BME280;13308;50.860;13.664;2023-09-08T08:12:27;97404.84;;;29.73;42.69
25130;BME280;13308;50.860;13.664;2023-09-08T08:14:52;97403.13;;;29.89;41.40
25130;BME280;13308;50.860;13.664;2023-09-08T08:17:18;97397.13;;;29.39;44.24
25130;BME280;13308;50.860;13.664;2023-09-08T08:19:45;97405.25;;;29.83;43.14
25130;BME280;13308;50.860;13.664;2023-09-08T08:22:10;97396.84;;;30.20;44.49
25130;BME280;13308;50.860;13.664;2023-09-08T08:24:35;97393.50;;;29.38;41.25
25130;BME280;13308;50.860;13.664;2023-09-08T08:27:01;97390.75;;;28.92;42.66
25130;BME280;13308;50.860;13.664;2023-09-08T08:29:27;97380.53;;;28.73;42.08
25130;BME280;13308;50.860;13.664;2023-09-08T08:31:52;97387.28;;;29.40;40.63
25130;BME280;13308;50.860;13.664;2023-09-08T08:34:17;97390.00;;;29.56;41.96
25130;BME280;13308;50.860;13.664;2023-09-08T08:36:42;97393.38;;;29.55;42.73
25130;BME280;13308;50.860;13.664;2023-09-08T08:39:08;97392.59;;;30.02;41.48
25130;BME280;13308;50.860;13.664;2023-09-08T08:41:33;97397.56;;;30.02;42.29
25130;BME280;13308;50.860;13.664;2023-09-08T08:44:03;97394.94;;;30.04;40.76
25130;BME280;13308;50.860;13.664;2023-09-08T08:46:29;97394.75;;;29.96;40.38
25130;BME280;13308;50.860;13.664;2023-09-08T08:48:55;97391.91;;;29.43;41.08
25130;BME280;13308;50.860;13.664;2023-09-08T08:51:23;97390.97;;;30.12;39.78
25130;BME280;13308;50.860;13.664;2023-09-08T08:53:48;97395.72;;;30.04;41.44
25130;BME280;13308;50.860;13.664;2023-09-08T08:56:14;97388.06;;;29.11;41.57
25130;BME280;13308;50.860;13.664;2023-09-08T08:58:41;97388.13;;;29.35;39.93
25130;BME280;13308;50.860;13.664;2023-09-08T09:01:07;97393.44;;;29.44;42.01
25130;BME280;13308;50.860;13.664;2023-09-08T09:03:33;97385.44;;;29.42;42.11
25130;BME280;13308;50.860;13.664;2023-09-08T09:06:00;97387.63;;;29.31;42.50
25130;BME280;13308;50.860;13.664;2023-09-08T09:08:26;97380.19;;;28.47;40.44
25130;BME280;13308;50.860;13.664;2023-09-08T09:10:53;97379.97;;;27.33;42.74
25130;BME280;13308;50.860;13.664;2023-09-08T09:13:18;97380.84;;;28.07;42.20
25130;BME280;13308;50.860;13.664;2023-09-08T09:15:44;97370.88;;;28.52;42.50
25130;BME280;13308;50.860;13.664;2023-09-08T09:18:10;97378.59;;;29.27;42.50
25130;BME280;13308;50.860;13.664;2023-09-08T09:20:36;97387.00;;;29.73;43.21
25130;BME280;13308;50.860;13.664;2023-09-08T09:23:02;97374.78;;;28.89;40.84
25130;BME280;13308;50.860;13.664;2023-09-08T09:25:30;97375.00;;;27.83;42.58
25130;BME280;13308;50.860;13.664;2023-09-08T09:27:58;97365.19;;;27.89;42.49
25130;BME280;13308;50.860;13.664;2023-09-08T09:30:24;97377.69;;;28.27;43.65
25130;BME280;13308;50.860;13.664;2023-09-08T09:33:03;97365.41;;;27.97;42.52
25130;BME280;13308;50.860;13.664;2023-09-08T09:35:47;97368.44;;;28.67;41.95
25130;BME280;13308;50.860;13.664;2023-09-08T09:38:13;97364.25;;;28.33;41.44
25130;BME280;13308;50.860;13.664;2023-09-08T09:40:39;97360.88;;;28.40;43.36
25130;BME280;13308;50.860;13.664;2023-09-08T09:43:06;97359.06;;;28.77;42.08
25130;BME280;13308;50.860;13.664;2023-09-08T09:45:36;97356.69;;;28.52;40.55
25130;BME280;13308;50.860;13.664;2023-09-08T09:48:03;97359.56;;;28.81;43.29
25130;BME280;13308;50.860;13.664;2023-09-08T09:50:37;97356.63;;;28.98;39.80
25130;BME280;13308;50.860;13.664;2023-09-08T09:53:10;97360.25;;;28.58;42.47
25130;BME280;13308;50.860;13.664;2023-09-08T09:55:37;97358.28;;;29.17;39.41
25130;BME280;13308;50.860;13.664;2023-09-08T09:58:04;97362.44;;;29.46;38.34
25130;BME280;13308;50.860;13.664;2023-09-08T10:00:30;97364.31;;;29.08;40.73
25130;BME280;13308;50.860;13.664;2023-09-08T10:02:57;97364.72;;;29.47;40.11
25130;BME280;13308;50.860;13.664;2023-09-08T10:05:26;97365.31;;;30.18;39.34
25130;BME280;13308;50.860;13.664;2023-09-08T10:07:51;97363.59;;;30.28;39.78
25130;BME280;13308;50.860;13.664;2023-09-08T10:10:17;97371.00;;;29.94;38.37
25130;BME280;13308;50.860;13.664;2023-09-08T10:12:44;97363.03;;;29.87;39.58
25130;BME280;13308;50.860;13.664;2023-09-08T10:15:11;97357.31;;;29.39;41.16
25130;BME280;13308;50.860;13.664;2023-09-08T10:17:40;97357.13;;;29.85;39.13
25130;BME280;13308;50.860;13.664;2023-09-08T10:20:07;97364.59;;;29.64;41.08
25130;BME280;13308;50.860;13.664;2023-09-08T10:22:38;97362.91;;;29.98;37.65
25130;BME280;13308;50.860;13.664;2023-09-08T10:25:05;97359.06;;;29.95;39.34
25130;BME280;13308;50.860;13.664;2023-09-08T10:27:31;97357.41;;;30.05;37.74
25130;BME280;13308;50.860;13.664;2023-09-08T10:30:00;97346.69;;;29.69;39.82
25130;BME280;13308;50.860;13.664;2023-09-08T10:32:26;97354.97;;;29.13;38.85
25130;BME280;13308;50.860;13.664;2023-09-08T10:34:53;97352.63;;;29.95;38.92
25130;BME280;13308;50.860;13.664;2023-09-08T10:37:20;97358.78;;;29.75;39.37
25130;BME280;13308;50.860;13.664;2023-09-08T10:39:46;97355.09;;;30.04;38.00
25130;BME280;13308;50.860;13.664;2023-09-08T10:47:24;97343.84;;;29.69;38.17
25130;BME280;13308;50.860;13.664;2023-09-08T10:49:51;97333.84;;;30.05;38.71
25130;BME280;13308;50.860;13.664;2023-09-08T10:52:21;97330.25;;;29.03;37.96
25130;BME280;13308;50.860;13.664;2023-09-08T10:54:51;97337.94;;;29.67;39.26
25130;BME280;13308;50.860;13.664;2023-09-08T10:57:27;97338.00;;;29.85;37.97
25130;BME280;13308;50.860;13.664;2023-09-08T10:59:57;97334.81;;;30.31;37.74
25130;BME280;13308;50.860;13.664;2023-09-08T11:02:36;97339.16;;;30.38;37.61
25130;BME280;13308;50.860;13.664;2023-09-08T11:05:04;97344.31;;;30.39;38.96
25130;BME280;13308;50.860;13.664;2023-09-08T11:07:31;97325.44;;;30.18;38.25
25130;BME280;13308;50.860;13.664;2023-09-08T11:09:57;97331.53;;;30.46;36.71
25130;BME280;13308;50.860;13.664;2023-09-08T11:12:26;97334.66;;;30.98;38.04
25130;BME280;13308;50.860;13.664;2023-09-08T11:14:51;97329.97;;;31.45;36.88
25130;BME280;13308;50.860;13.664;2023-09-08T11:17:17;97337.00;;;31.44;34.18
25130;BME280;13308;50.860;13.664;2023-09-08T11:20:25;97340.25;;;31.79;38.02
25130;BME280;13308;50.860;13.664;2023-09-08T11:22:47;97342.91;;;32.29;34.36
25130;BME280;13308;50.860;13.664;2023-09-08T11:25:13;97343.13;;;32.65;33.93
25130;BME280;13308;50.860;13.664;2023-09-08T11:27:39;97336.38;;;32.16;33.05
25130;BME280;13308;50.860;13.664;2023-09-08T11:30:06;97330.16;;;31.21;34.10
25130;BME280;13308;50.860;13.664;2023-09-08T11:32:35;97322.38;;;31.03;36.07
25130;BME280;13308;50.860;13.664;2023-09-08T11:35:09;97328.78;;;31.09;36.19
25130;BME280;13308;50.860;13.664;2023-09-08T11:37:39;97317.59;;;30.42;37.25
25130;BME280;13308;50.860;13.664;2023-09-08T11:40:06;97328.16;;;30.97;36.73
25130;BME280;13308;50.860;13.664;2023-09-08T11:42:38;97314.59;;;31.03;36.35
25130;BME280;13308;50.860;13.664;2023-09-08T11:45:10;97323.66;;;30.89;35.60
25130;BME280;13308;50.860;13.664;2023-09-08T11:47:36;97331.91;;;30.74;36.54
25130;BME280;13308;50.860;13.664;2023-09-08T11:50:02;97317.75;;;31.00;34.58
25130;BME280;13308;50.860;13.664;2023-09-08T11:52:27;97327.09;;;31.19;33.99
25130;BME280;13308;50.860;13.664;2023-09-08T11:54:53;97319.06;;;30.99;35.72
25130;BME280;13308;50.860;13.664;2023-09-08T11:57:18;97320.66;;;30.63;35.49
25130;BME280;13308;50.860;13.664;2023-09-08T11:59:45;97314.69;;;30.48;37.07
25130;BME280;13308;50.860;13.664;2023-09-08T12:02:13;97321.44;;;31.13;34.68
25130;BME280;13308;50.860;13.664;2023-09-08T12:04:39;97325.31;;;31.29;34.93
25130;BME280;13308;50.860;13.664;2023-09-08T12:07:05;97321.75;;;31.67;35.91
25130;BME280;13308;50.860;13.664;2023-09-08T12:09:31;97323.97;;;31.17;34.47
25130;BME280;13308;50.860;13.664;2023-09-08T12:11:57;97315.91;;;31.34;36.20
25130;BME280;13308;50.860;13.664;2023-09-08T12:14:25;97320.81;;;31.78;35.12
25130;BME280;13308;50.860;13.664;2023-09-08T12:17:05;97314.72;;;31.42;36.73
25130;BME280;13308;50.860;13.664;2023-09-08T12:19:32;97315.69;;;31.32;36.18
25130;BME280;13308;50.860;13.664;2023-09-08T12:22:00;97311.09;;;31.42;34.17
25130;BME280;13308;50.860;13.664;2023-09-08T12:25:07;97303.19;;;31.35;35.73
25130;BME280;13308;50.860;13.664;2023-09-08T12:27:36;97308.91;;;31.48;34.43
25130;BME280;13308;50.860;13.664;2023-09-08T12:30:01;97308.09;;;31.79;34.83
25130;BME280;13308;50.860;13.664;2023-09-08T12:32:30;97301.00;;;32.45;34.21
25130;BME280;13308;50.860;13.664;2023-09-08T12:34:56;97305.41;;;32.07;34.07
25130;BME280;13308;50.860;13.664;2023-09-08T12:37:22;97299.59;;;32.12;34.21
25130;BME280;13308;50.860;13.664;2023-09-08T12:39:48;97311.13;;;32.20;33.09
25130;BME280;13308;50.860;13.664;2023-09-08T12:42:14;97305.31;;;32.12;32.38
25130;BME280;13308;50.860;13.664;2023-09-08T12:44:39;97293.50;;;32.42;34.02
25130;BME280;13308;50.860;13.664;2023-09-08T12:47:06;97299.69;;;33.20;32.87
25130;BME280;13308;50.860;13.664;2023-09-08T12:49:31;97301.03;;;32.99;33.13
25130;BME280;13308;50.860;13.664;2023-09-08T12:51:56;97289.97;;;33.03;33.84
25130;BME280;13308;50.860;13.664;2023-09-08T12:54:22;97305.25;;;33.95;33.84
25130;BME280;13308;50.860;13.664;2023-09-08T12:56:47;97283.81;;;32.58;32.27
25130;BME280;13308;50.860;13.664;2023-09-08T12:59:12;97293.34;;;32.94;33.34
25130;BME280;13308;50.860;13.664;2023-09-08T13:01:37;97290.69;;;32.96;32.19
25130;BME280;13308;50.860;13.664;2023-09-08T13:04:03;97291.38;;;32.89;33.15
25130;BME280;13308;50.860;13.664;2023-09-08T13:06:28;97284.50;;;32.84;32.08
25130;BME280;13308;50.860;13.664;2023-09-08T13:08:54;97286.72;;;32.78;33.05
25130;BME280;13308;50.860;13.664;2023-09-08T13:11:19;97289.50;;;32.91;32.88
25130;BME280;13308;50.860;13.664;2023-09-08T13:13:44;97279.47;;;32.98;31.63
25130;BME280;13308;50.860;13.664;2023-09-08T13:16:10;97284.50;;;33.05;32.93
25130;BME280;13308;50.860;13.664;2023-09-08T13:18:35;97285.13;;;33.11;33.02
25130;BME280;13308;50.860;13.664;2023-09-08T13:21:04;97281.91;;;32.94;32.16
25130;BME280;13308;50.860;13.664;2023-09-08T13:23:29;97270.50;;;32.01;34.75
25130;BME280;13308;50.860;13.664;2023-09-08T13:25:54;97275.38;;;32.73;33.92
25130;BME280;13308;50.860;13.664;2023-09-08T13:28:20;97274.94;;;32.82;33.01
25130;BME280;13308;50.860;13.664;2023-09-08T13:30:45;97284.56;;;33.81;31.15
25130;BME280;13308;50.860;13.664;2023-09-08T13:33:10;97284.13;;;33.77;32.52
25130;BME280;13308;50.860;13.664;2023-09-08T13:35:36;97275.78;;;33.31;33.64
25130;BME280;13308;50.860;13.664;2023-09-08T13:38:01;97277.63;;;34.05;31.96
25130;BME280;13308;50.860;13.664;2023-09-08T13:40:28;97281.13;;;33.83;32.27
25130;BME280;13308;50.860;13.664;2023-09-08T13:42:53;97277.56;;;33.69;33.01
25130;BME280;13308;50.860;13.664;2023-09-08T13:45:19;97291.66;;;34.73;31.57
25130;BME280;13308;50.860;13.664;2023-09-08T13:47:44;97272.81;;;33.03;32.64
25130;BME280;13308;50.860;13.664;2023-09-08T13:50:09;97284.59;;;33.89;31.77
25130;BME280;13308;50.860;13.664;2023-09-08T13:52:35;97280.47;;;35.06;30.16
25130;BME280;13308;50.860;13.664;2023-09-08T13:55:00;97278.44;;;34.63;31.00
25130;BME280;13308;50.860;13.664;2023-09-08T13:57:25;97272.59;;;34.26;31.66
25130;BME280;13308;50.860;13.664;2023-09-08T13:59:51;97274.31;;;35.91;30.75
25130;BME280;13308;50.860;13.664;2023-09-08T14:02:19;97285.66;;;37.15;28.59
25130;BME280;13308;50.860;13.664;2023-09-08T14:04:44;97275.16;;;37.93;28.11
25130;BME280;13308;50.860;13.664;2023-09-08T14:07:09;97277.88;;;37.50;29.46
25130;BME280;13308;50.860;13.664;2023-09-08T14:09:35;97285.63;;;37.64;27.30
25130;BME280;13308;50.860;13.664;2023-09-08T14:12:01;97281.66;;;37.60;27.95
25130;BME280;13308;50.860;13.664;2023-09-08T14:14:26;97277.19;;;37.17;28.41
25130;BME280;13308;50.860;13.664;2023-09-08T14:16:52;97279.81;;;37.47;26.72
25130;BME280;13308;50.860;13.664;2023-09-08T14:19:17;97278.59;;;37.09;27.40
25130;BME280;13308;50.860;13.664;2023-09-08T14:21:42;97269.25;;;36.61;27.00
25130;BME280;13308;50.860;13.664;2023-09-08T14:24:08;97268.25;;;36.27;27.90
25130;BME280;13308;50.860;13.664;2023-09-08T14:26:33;97273.38;;;37.07;27.30
25130;BME280;13308;50.860;13.664;2023-09-08T14:29:00;97281.41;;;37.65;27.04
25130;BME280;13308;50.860;13.664;2023-09-08T14:31:25;97261.94;;;34.41;30.72
25130;BME280;13308;50.860;13.664;2023-09-08T14:33:50;97268.44;;;33.71;32.39
25130;BME280;13308;50.860;13.664;2023-09-08T14:36:17;97259.44;;;35.26;30.77
25130;BME280;13308;50.860;13.664;2023-09-08T14:38:43;97266.13;;;35.06;31.08
25130;BME280;13308;50.860;13.664;2023-09-08T14:41:09;97261.63;;;36.17;30.97
25130;BME280;13308;50.860;13.664;2023-09-08T14:43:34;97261.91;;;36.36;30.41
25130;BME280;13308;50.860;13.664;2023-09-08T14:45:59;97261.25;;;36.52;29.40
25130;BME280;13308;50.860;13.664;2023-09-08T14:48:28;97247.78;;;36.30;29.84
25130;BME280;13308;50.860;13.664;2023-09-08T14:50:54;97264.84;;;36.21;29.84
25130;BME280;13308;50.860;13.664;2023-09-08T14:53:20;97253.25;;;36.83;29.84
25130;BME280;13308;50.860;13.664;2023-09-08T14:55:46;97257.13;;;36.38;29.92
25130;BME280;13308;50.860;13.664;2023-09-08T14:58:13;97258.47;;;37.01;29.12
25130;BME280;13308;50.860;13.664;2023-09-08T15:00:39;97262.56;;;37.23;29.00
25130;BME280;13308;50.860;13.664;2023-09-08T15:03:05;97265.34;;;37.13;28.26
25130;BME280;13308;50.860;13.664;2023-09-08T15:05:32;97246.41;;;35.47;31.58
25130;BME280;13308;50.860;13.664;2023-09-08T15:07:58;97245.09;;;35.26;31.14
25130;BME280;13308;50.860;13.664;2023-09-08T15:10:23;97253.28;;;34.92;31.01
25130;BME280;13308;50.860;13.664;2023-09-08T15:12:49;97249.50;;;35.42;30.38
25130;BME280;13308;50.860;13.664;2023-09-08T15:15:14;97251.28;;;34.49;31.52
25130;BME280;13308;50.860;13.664;2023-09-08T15:17:41;97247.97;;;33.95;32.12
25130;BME280;13308;50.860;13.664;2023-09-08T15:20:06;97241.34;;;33.72;32.76
25130;BME280;13308;50.860;13.664;2023-09-08T15:22:33;97242.75;;;34.21;33.25
25130;BME280;13308;50.860;13.664;2023-09-08T15:24:59;97233.25;;;34.34;33.06
25130;BME280;13308;50.860;13.664;2023-09-08T15:27:24;97236.22;;;34.64;32.03
25130;BME280;13308;50.860;13.664;2023-09-08T15:29:49;97238.66;;;33.38;34.89
25130;BME280;13308;50.860;13.664;2023-09-08T15:32:14;97230.56;;;33.57;34.21
25130;BME280;13308;50.860;13.664;2023-09-08T15:34:40;97232.94;;;33.74;34.80
25130;BME280;13308;50.860;13.664;2023-09-08T15:37:05;97223.09;;;33.06;36.66
25130;BME280;13308;50.860;13.664;2023-09-08T15:39:30;97226.59;;;33.96;33.67
25130;BME280;13308;50.860;13.664;2023-09-08T15:41:56;97236.28;;;33.57;33.74
25130;BME280;13308;50.860;13.664;2023-09-08T15:44:21;97215.44;;;33.01;33.72
25130;BME280;13308;50.860;13.664;2023-09-08T15:46:46;97223.34;;;32.33;34.92
25130;BME280;13308;50.860;13.664;2023-09-08T15:49:12;97215.00;;;32.22;36.68
25130;BME280;13308;50.860;13.664;2023-09-08T15:51:37;97215.47;;;32.47;35.33
25130;BME280;13308;50.860;13.664;2023-09-08T15:54:03;97207.94;;;31.90;37.15
25130;BME280;13308;50.860;13.664;2023-09-08T15:56:29;97208.91;;;32.05;35.98
25130;BME280;13308;50.860;13.664;2023-09-08T15:58:54;97211.94;;;31.74;36.74
25130;BME280;13308;50.860;13.664;2023-09-08T16:01:20;97212.72;;;30.91;36.96
25130;BME280;13308;50.860;13.664;2023-09-08T16:03:45;97204.00;;;30.39;38.38
25130;BME280;13308;50.860;13.664;2023-09-08T16:06:10;97202.88;;;30.10;38.92
25130;BME280;13308;50.860;13.664;2023-09-08T16:08:37;97193.88;;;30.25;38.19
25130;BME280;13308;50.860;13.664;2023-09-08T16:11:03;97199.84;;;30.40;38.31
25130;BME280;13308;50.860;13.664;2023-09-08T16:13:30;97201.00;;;29.33;40.87
25130;BME280;13308;50.860;13.664;2023-09-08T16:15:56;97189.41;;;28.83;41.81
25130;BME280;13308;50.860;13.664;2023-09-08T16:18:21;97184.13;;;28.93;41.81
25130;BME280;13308;50.860;13.664;2023-09-08T16:20:48;97184.16;;;28.63;42.44
25130;BME280;13308;50.860;13.664;2023-09-08T16:23:13;97191.19;;;28.57;42.08
25130;BME280;13308;50.860;13.664;2023-09-08T16:25:39;97173.25;;;27.57;44.79
25130;BME280;13308;50.860;13.664;2023-09-08T16:28:04;97173.16;;;27.73;43.06
25130;BME280;13308;50.860;13.664;2023-09-08T16:30:30;97170.13;;;26.87;45.66
25130;BME280;13308;50.860;13.664;2023-09-08T16:32:55;97176.03;;;26.89;44.66
25130;BME280;13308;50.860;13.664;2023-09-08T16:35:21;97168.84;;;26.77;45.61
25130;BME280;13308;50.860;13.664;2023-09-08T16:37:46;97167.84;;;26.36;46.85
25130;BME280;13308;50.860;13.664;2023-09-08T16:40:12;97160.91;;;26.04;47.80
25130;BME280;13308;50.860;13.664;2023-09-08T16:42:37;97160.81;;;25.65;48.65
25130;BME280;13308;50.860;13.664;2023-09-08T16:45:03;97160.50;;;25.47;50.89
25130;BME280;13308;50.860;13.664;2023-09-08T16:47:29;97158.16;;;25.34;51.48
25130;BME280;13308;50.860;13.664;2023-09-08T16:49:54;97162.69;;;25.21;52.19
25130;BME280;13308;50.860;13.664;2023-09-08T16:52:21;97167.16;;;24.91;53.09
25130;BME280;13308;50.860;13.664;2023-09-08T16:54:47;97168.78;;;24.61;53.51
25130;BME280;13308;50.860;13.664;2023-09-08T16:57:13;97168.16;;;24.46;54.86
25130;BME280;13308;50.860;13.664;2023-09-08T16:59:39;97169.28;;;24.28;54.98
25130;BME280;13308;50.860;13.664;2023-09-08T17:02:05;97161.56;;;23.98;56.56
25130;BME280;13308;50.860;13.664;2023-09-08T17:04:30;97169.69;;;23.65;57.34
25130;BME280;13308;50.860;13.664;2023-09-08T17:06:56;97162.44;;;23.33;60.03
25130;BME280;13308;50.860;13.664;2023-09-08T17:09:21;97164.59;;;23.23;59.78
25130;BME280;13308;50.860;13.664;2023-09-08T17:11:47;97163.22;;;22.79;62.10
25130;BME280;13308;50.860;13.664;2023-09-08T17:14:13;97161.25;;;22.65;62.66
25130;BME280;13308;50.860;13.664;2023-09-08T17:16:38;97170.31;;;22.40;65.94
25130;BME280;13308;50.860;13.664;2023-09-08T17:19:03;97156.38;;;22.16;65.27
25130;BME280;13308;50.860;13.664;2023-09-08T17:21:31;97164.53;;;21.85;67.52
25130;BME280;13308;50.860;13.664;2023-09-08T17:23:56;97160.94;;;21.56;70.22
25130;BME280;13308;50.860;13.664;2023-09-08T17:26:22;97159.84;;;21.39;70.75
25130;BME280;13308;50.860;13.664;2023-09-08T17:28:47;97161.72;;;21.18;71.77
25130;BME280;13308;50.860;13.664;2023-09-08T17:31:12;97161.31;;;21.11;71.75
25130;BME280;13308;50.860;13.664;2023-09-08T17:33:38;97157.63;;;21.05;71.81
25130;BME280;13308;50.860;13.664;2023-09-08T17:36:03;97160.50;;;20.96;73.49
25130;BME280;13308;50.860;13.664;2023-09-08T17:38:29;97160.00;;;20.74;75.09
25130;BME280;13308;50.860;13.664;2023-09-08T17:40:54;97159.47;;;20.61;75.14
25130;BME280;13308;50.860;13.664;2023-09-08T17:43:19;97161.09;;;20.53;76.56
25130;BME280;13308;50.860;13.664;2023-09-08T17:45:45;97160.66;;;20.45;76.20
25130;BME280;13308;50.860;13.664;2023-09-08T17:48:11;97159.78;;;20.30;77.09
